Tiempo atmosférico en la estación meteorológica de Navalmoral De La Mata, Cáceres (269 m.)



Fecha
DESCASC
Temp. máxima en grados centígrados (hora)
DESCASC
Temp. mínima en grados centígrados (hora)
DESCASC
Temp. media en grados centígrados
DESCASC
Racha de viento máxima en m/sg (hora)
DESCASC
Velocidad máxima media en intervalos de 10 minutos(hora)
DESCASC
Precipitaciones diarias en mm
DESCASC
Precipitaciones de 00:00 a 06:00 en mm
DESCASC
Precipitaciones de 06:00 a 12:00 en mm
DESCASC
Precipitaciones de 12:00 a 18:00 en mm
DESCASC
Precipitaciones de 18:00 a 24:00 en mm
DESCASC
18-08-2019 36.2 (18:00) 16.6 (07:30) 26.4 13.06 (15:20) 5.56 (15:40) 0 0 0 0 0
17-08-2019 39.8 (18:00) 17.5 (07:40) 28.6 8.06 (16:10) 4.17 (19:10) 0 0 0 0 0
16-08-2019 39.6 (18:10) 18.8 (06:10) 29.2 10.28 (14:20) 4.44 (14:30) 0 0 0 0 0
15-08-2019 39.3 (16:50) 17 (00:00) 28.1 6.94 (17:50) 3.33 (17:50) 0 0 0 0 0
14-08-2019 37.2 (17:30) 13.2 (00:00) 25.2 8.06 (18:50) 3.61 (18:40) 0 0 0 0 0
13-08-2019 34.3 (17:40) 14.2 (00:00) 24.2 10 (11:10) 5 (11:10) 0 0 0 0 0
12-08-2019 31 (18:00) 11.6 (00:00) 21.3 11.11 (16:30) 3.61 (16:40) 0 0 0 0 0
11-08-2019 30 (17:00) 19.4 (00:00) 24.7 14.17 (14:50) 7.5 (17:40) 0 0 0 0 0
10-08-2019 32.8 (16:20) 12.9 (00:00) 22.8 8.33 (19:30) 3.33 (17:50) 0 0 0 0 0
09-08-2019 28.9 (15:30) 18.6 (00:00) 23.8 15.28 (16:30) 6.39 (17:20) 0 0 0 0 0
08-08-2019 36.1 (17:30) 17.2 (00:00) 26.6 11.94 (16:20) 6.11 (18:10) 0 0 0 0 0
07-08-2019 28.4 (00:00) 20.9 (00:00) 24.6 7.78 (11:00) 4.72 (02:40) 0.2 0 0 0.2 0
06-08-2019 37.4 (17:10) 15.5 (00:00) 26.5 11.39 (17:10) 4.44 (17:00) 0 0 0 0 0
05-08-2019 37.8 (17:00) 17.1 (00:00) 27.4 10 (17:30) 4.72 (17:50) 0 0 0 0 0
04-08-2019 37.9 (18:30) 16.9 (00:00) 27.4 10.83 (23:30) 4.72 (23:30) 0 0 0 0 0
03-08-2019 37.9 (18:10) 15 (00:00) 26.5 9.72 (18:10) 3.61 (18:20) 0 0 0 0 0
02-08-2019 38 (18:30) 15.5 (00:00) 26.8 7.5 (18:50) 4.17 (01:00) 0 0 0 0 0
01-08-2019 36.9 (18:10) 18.1 (00:00) 27.5 8.61 (15:00) 4.17 (16:10) 0 0 0 0 0
31-07-2019 36.5 (17:40) 15.5 (00:00) 26 11.67 (10:50) 5.83 (10:50) 0 0 0 0 0
30-07-2019 33.2 (17:20) 12.8 (00:00) 23 6.94 (00:40) 4.17 (00:20) 0 0 0 0 0
29-07-2019 33.5 (17:50) 19.1 (00:00) 26.3 12.5 (16:30) 6.39 (14:00) 0 0 0 0 0
28-07-2019 34.1 (17:40) 15.7 (00:00) 24.9 10.28 (17:30) 5.28 (09:40) 0 0 0 0 0
27-07-2019 28.9 (18:30) 17.7 (00:00) 23.3 15 (15:00) 8.33 (14:40) 0 0 0 0 0
26-07-2019 32.5 (17:10) 20.2 (00:00) 26.4 13.61 (19:30) 7.22 (12:40) 0 0 0 0 0
25-07-2019 37.5 (17:20) 20.9 (00:00) 29.2 11.39 (23:59) 5.56 (17:50) 0 0 0 0 0
24-07-2019 38.8 (18:40) 21 (00:00) 29.9 7.5 (01:50) 4.17 (11:20) 0 0 0 0 0
23-07-2019 38.4 (18:10) 21.8 (00:00) 30.1 15 (04:00) 6.39 (03:20) 4.2 4.2 0 0 0
22-07-2019 40.9 (17:50) 21.9 (00:00) 31.4 11.67 (12:30) 6.11 (21:00) 11 0 0 0 11
21-07-2019 40.6 (17:00) 19 (00:00) 29.8 8.06 (17:20) 3.89 (18:00) 0 0 0 0 0

Gráficas

Temp. máximas Temp. mínimas Temp. medias Precipitaciones Rachas de viento máximas Velocidades máximas media en intervalos de 10 minutos

Datos horarios

Fecha y hora oficial Temperatura (ºC) Velocidad del viento (km/h) Dirección del viento Racha (km/h) Dirección de racha Precipitación (mm) Presión (hPa) Tendencia (hPa) Humedad (%)
2019-08-19 23:00:00 26.3 7 Sudoeste 12 Sudoeste 0 981.4 0.3 24
2019-08-19 22:00:00 26.6 6 Sudoeste 12 Oeste 0 981.1 -0.1 24
2019-08-19 21:00:00 28.5 4 Oeste 16 Oeste 0 981.2 -0.1 20
2019-08-19 20:00:00 30 5 Noroeste 28 Noroeste 0 981.1 -0.4 19
2019-08-19 19:00:00 31.3 11 Noroeste 31 Noroeste 0 981.2 -0.7 19
2019-08-19 18:00:00 32.7 9 Noroeste 30 Noroeste 0 981.3 -1.2 19
2019-08-19 17:00:00 33.4 10 Noroeste 28 Noroeste 0 981.5 -1.5 20
2019-08-19 16:00:00 33.9 9 Oeste 31 Oeste 0 981.9 -1.3 17
2019-08-19 15:00:00 32.5 11 Noroeste 30 Noroeste 0 982.5 -0.9 22
2019-08-19 14:00:00 31 8 Noroeste 26 Oeste 0 983 -0.4 27
2019-08-19 13:00:00 29.9 9 Oeste 26 Noroeste 0 983.2 0.1 31
2019-08-19 12:00:00 27.8 10 Oeste 23 Oeste 0 983.4 0.3 35
2019-08-19 11:00:00 25.9 8 Noroeste 17 Noroeste 0 983.4 0.6 44
2019-08-19 10:00:00 24 8 Oeste 16 Oeste 0 983.1 0.6 51
2019-08-19 09:00:00 21.5 4 Oeste 11 Noroeste 0 983.1 0.9 62
2019-08-19 08:00:00 18.8 4 Noroeste 10 Oeste 0 982.8 0.8 71
2019-08-19 07:00:00 19.2 6 Oeste 14 Oeste 0 982.5 0.6 72
2019-08-19 06:00:00 21 8 Oeste 22 Sudoeste 0 982.2 0.4 66
2019-08-19 05:00:00 22.2 15 Sudoeste 23 Sudoeste 0 982 -0.3 63
2019-08-19 04:00:00 22.8 12 Sudoeste 27 Sudoeste 0 981.9 -0.2 61
2019-08-19 03:00:00 24 16 Sudoeste 30 Oeste 0 981.8 -0.1 57
2019-08-19 02:00:00 24.8 14 Sudoeste 31 Sudoeste 0 982.3 0.9 54
2019-08-19 01:00:00 25.9 16 Sudoeste 31 Oeste 0 982.1 1.5 50
2019-08-19 00:00:00 27.3 17 Oeste 36 Oeste 0 981.9 1.8 45
2019-08-18 23:00:00 28.6 17 Oeste 39 Oeste 0 981.4 1.3 40
2019-08-18 22:00:00 28.9 8 Oeste 17 Oeste 0 980.6 0.4 32
2019-08-18 21:00:00 31.7 7 Oeste 25 Noroeste 0 980.1 -0.4 23
2019-08-18 20:00:00 33.2 13 Oeste 32 Oeste 0 980.1 -0.5 21
2019-08-18 19:00:00 34.6 14 Oeste 37 Noroeste 0 980.2 -0.8 13
2019-08-18 18:00:00 35.2 15 Oeste 39 Oeste 0 980.5 -0.8 14
2019-08-18 17:00:00 35.2 18 Oeste 37 Sudoeste 0 980.6 -1 15
2019-08-18 16:00:00 35.2 15 Oeste 47 Oeste 0 981 -0.8 15
2019-08-18 15:00:00 33.6 19 Oeste 40 Oeste 0 981.3 -0.8 21
2019-08-18 14:00:00 32.9 11 Oeste 33 Sudoeste 0 981.6 -0.6 22
2019-08-18 13:00:00 32.2 11 Noroeste 31 Oeste 0 981.8 -0.1 24
2019-08-18 12:00:00 30.4 12 Oeste 24 Oeste 0 982.1 0.7 29
2019-08-18 11:00:00 28.1 7 Noroeste 22 Oeste 0 982.2 1.1 35
2019-08-18 10:00:00 25.8 11 Sudoeste 24 Sudoeste 0 981.9 1.5 41
2019-08-18 09:00:00 22.2 3 Oeste 10 Oeste 0 981.4 1.4 53
2019-08-18 08:00:00 18.1 5 Noroeste 13 Noroeste 0 981.1 1 65
2019-08-18 07:00:00 17.4 3 Noroeste 9 Noroeste 0 980.4 0.1 63
2019-08-18 06:00:00 18.8 2 Oeste 10 Oeste 0 980 -0.1 56
2019-08-18 05:00:00 21 7 Oeste 12 Oeste 0 980.1 0 51
2019-08-18 04:00:00 25 4 Oeste 20 Sudoeste 0 980.3 0.3 40
2019-08-18 03:00:00 25 11 Sudoeste 17 Sudoeste 0 980.1 0 41
2019-08-18 02:00:00 26.4 11 Sudoeste 24 Sudoeste 0 980.1 0 30
2019-08-18 01:00:00 24.3 10 Sudoeste 15 Sudoeste 0 980 0.3 24
2019-08-18 00:00:00 23.4 7 Oeste 9 Oeste 0 980.1 0.7 26
2019-08-17 23:00:00 26.1 5 Oeste 13 Norte 0 980.1 0.8 20
2019-08-17 22:00:00 29.6 4 Noroeste 13 Noroeste 0 979.7 0.1 13
2019-08-17 21:00:00 34.3 7 Oeste 23 Sudoeste 0 979.4 -0.6 9
2019-08-17 20:00:00 37.2 13 Sudoeste 27 Sudoeste 0 979.3 -1.2 8
2019-08-17 19:00:00 38.7 14 Oeste 27 Sudoeste 0 979.6 -1.5 7
2019-08-17 18:00:00 39.8 10 Oeste 29 Oeste 0 980 -1.8 9
2019-08-17 17:00:00 39.2 9 Noroeste 29 Noroeste 0 980.5 -2.2 10
2019-08-17 16:00:00 38.8 8 Noroeste 26 Noroeste 0 981.1 -2.2 12
2019-08-17 15:00:00 37.1 10 Noroeste 28 Oeste 0 981.8 -2.1 14
2019-08-17 14:00:00 35.7 9 Oeste 28 Oeste 0 982.7 -1.4 16
2019-08-17 13:00:00 34.5 7 Sudoeste 23 Oeste 0 983.3 -0.9 19
2019-08-17 12:00:00 32.2 4 Oeste 14 Oeste 0 983.9 0 25
2019-08-17 11:00:00 30.3 3 Oeste 13 Oeste 0 984.1 0.7 28
2019-08-17 10:00:00 26.8 5 Noroeste 11 Oeste 0 984.2 1.2 34
2019-08-17 09:00:00 22.9 3 Sur 7 Este 0 983.9 1.3 47
2019-08-17 08:00:00 18 3 Este 6 Este 0 983.4 0.9 61
2019-08-17 07:00:00 17.8 2 Sur 8 Sudeste 0 983 0.4 63
2019-08-17 06:00:00 18.8 4 Sudeste 7 Sudeste 0 982.6 0.1 60
2019-08-17 05:00:00 19.8 3 Sudeste 6 Este 0 982.5 0 59
2019-08-17 04:00:00 21.1 3 Este 12 Nordeste 0 982.6 0.2 51
2019-08-17 03:00:00 22.4 5 Norte 13 Oeste 0 982.5 0.3 45
2019-08-17 02:00:00 26.3 5 Oeste 17 Sudoeste 0 982.5 0.4 34
2019-08-17 01:00:00 26.3 8 Sudoeste 14 Sudoeste 0 982.4 0.8 33
2019-08-17 00:00:00 25.4 7 Sudoeste 14 Sudoeste 0 982.2 0.8 35
2019-08-16 23:00:00 27.3 4 Sudoeste 8 Noroeste 0 982.1 0.8 32
2019-08-16 22:00:00 30.6 5 Oeste 9 Noroeste 0 981.6 0.2 24
2019-08-16 21:00:00 34.6 6 Oeste 25 Noroeste 0 981.4 -0.1 18
2019-08-16 20:00:00 36.9 12 Oeste 30 Oeste 0 981.3 -0.7 12
2019-08-16 19:00:00 38.2 11 Noroeste 31 Noroeste 0 981.4 -1.3 14
2019-08-16 18:00:00 39.3 10 Noroeste 30 Oeste 0 981.5 -1.8 13
2019-08-16 17:00:00 38.7 11 Noroeste 29 Oeste 0 982 -1.8 14
2019-08-16 16:00:00 38.2 9 Noroeste 32 Noroeste 0 982.7 -1.8 15
2019-08-16 15:00:00 37.9 8 Oeste 37 Sudoeste 0 983.3 -1.6 15
2019-08-16 14:00:00 36.5 5 Noroeste 22 Sudeste 0 983.8 -1.2 19
2019-08-16 13:00:00 34.7 8 Sudeste 27 Sudeste 0 984.5 -0.6 22
2019-08-16 12:00:00 33 9 Este 23 Este 0 984.9 -0.2 26
2019-08-16 11:00:00 30.9 13 Sudeste 27 Sudeste 0 985 0.2 29
2019-08-16 10:00:00 29 11 Este 22 Este 0 985.1 0.8 32
2019-08-16 09:00:00 25.5 7 Nordeste 13 Nordeste 0 985.1 1 39
2019-08-16 08:00:00 21.5 8 Nordeste 14 Nordeste 0 984.8 0.7 49
2019-08-16 07:00:00 19.4 8 Nordeste 11 Nordeste 0 984.3 0.2 55
2019-08-16 06:00:00 19.1 0 Calma 5 Norte 0 984.1 0.6 54
2019-08-16 05:00:00 20.6 4 Este 14 Este 0 984.1 0.5 50
2019-08-16 04:00:00 20.6 10 Este 16 Este 0 984.1 0.6 51
2019-08-16 03:00:00 21.2 5 Norte 10 Nordeste 0 983.5 0.3 45
2019-08-16 02:00:00 22.4 2 Nordeste 9 Este 0 983.6 0.4 40
2019-08-16 01:00:00 24.8 3 Sudoeste 10 Sudoeste 0 983.5 0.6 31
2019-08-16 00:00:00 26.1 7 Sudoeste 12 Sudoeste 0 983.2 0.7 29
2019-08-15 23:00:00 27.5 6 Sudoeste 10 Noroeste 0 983.2 0.9 28
2019-08-15 22:00:00 31.3 5 Noroeste 12 Oeste 0 982.9 0.4 21
2019-08-15 21:00:00 35.3 5 Noroeste 23 Noroeste 0 982.5 -0.2 14
2019-08-15 20:00:00 37.4 8 Oeste 21 Sudoeste 0 982.3 -0.9 13
2019-08-15 19:00:00 38.7 6 Sudoeste 25 Noroeste 0 982.5 -1.4 13
2019-08-15 18:00:00 39.2 5 Oeste 25 Sudoeste 0 982.7 -1.6 13
2019-08-15 17:00:00 38.6 7 Oeste 19 Noroeste 0 983.2 -1.7 14
2019-08-15 16:00:00 37.9 8 Nordeste 23 Noroeste 0 983.9 -1.6 15
2019-08-15 15:00:00 38 8 Noroeste 21 Norte 0 984.3 -1.7 14
2019-08-15 14:00:00 37.2 8 Sur 15 Este 0 984.9 -1.4 14
2019-08-15 13:00:00 35.6 6 Sur 16 Sur 0 985.5 -0.8 15
2019-08-15 12:00:00 32.7 5 Nordeste 13 Sudeste 0 986 0 21
2019-08-15 11:00:00 30 5 Norte 11 Nordeste 0 986.3 0.5 28
2019-08-15 10:00:00 27.4 4 Nordeste 9 Nordeste 0 986.3 0.8 31
2019-08-15 09:00:00 22.6 4 Nordeste 7 Nordeste 0 986 0.9 38
2019-08-15 08:00:00 18.3 5 Este 9 Sudeste 0 985.8 1 49
2019-08-15 07:00:00 17.3 3 Sudeste 7 Sudeste 0 985.5 0.8 57
2019-08-15 06:00:00 17.7 2 Nordeste 5 Este 0 985.1 0.3 54
2019-08-15 05:00:00 18.5 5 Este 8 Sudeste 0 984.8 -0.2 52
2019-08-15 04:00:00 18.9 4 Nordeste 7 Nordeste 0 984.7 -0.3 45
2019-08-15 03:00:00 20 2 Noroeste 6 Nordeste 0 984.8 -0.1 41
2019-08-15 02:00:00 21.5 3 Noroeste 8 Oeste 0 985 0.2 35
2019-08-15 01:00:00 23.5 0 Calma 12 Sudoeste 0 985 0.7 31
2019-08-15 00:00:00 24.8 6 Sudoeste 8 Sudoeste 0 984.9 0.9 28
2019-08-14 23:00:00 26.6 5 Oeste 9 Oeste 0 984.8 1.1 24
2019-08-14 22:00:00 29.5 6 Oeste 10 Oeste 0 984.3 0.4 18
2019-08-14 21:00:00 33.1 6 Oeste 22 Oeste 0 984 -0.3 14
2019-08-14 20:00:00 35.3 9 Oeste 26 Sudoeste 0 983.7 -1.1 12
2019-08-14 19:00:00 36.3 9 Oeste 29 Oeste 0 983.9 -1.5 11
2019-08-14 18:00:00 37.1 7 Oeste 26 Sudoeste 0 984.3 -1.7 11
2019-08-14 17:00:00 36.6 9 Sudoeste 20 Oeste 0 984.8 -1.9 12
2019-08-14 16:00:00 36.2 9 Oeste 23 Oeste 0 985.4 -1.9 11
2019-08-14 15:00:00 35.6 6 Noroeste 18 Norte 0 986 -1.8 11
2019-08-14 14:00:00 33.8 8 Este 21 Nordeste 0 986.7 -1.3 12
2019-08-14 13:00:00 32.7 6 Nordeste 19 Sudeste 0 987.3 -0.5 12
2019-08-14 12:00:00 30.5 8 Este 23 Este 0 987.8 0 15
2019-08-14 11:00:00 28 8 Nordeste 18 Nordeste 0 988 0.5 18
2019-08-14 10:00:00 25.4 7 Sudeste 14 Sudeste 0 987.8 0.6 21
2019-08-14 09:00:00 20.6 7 Nordeste 12 Nordeste 0 987.8 0.9 30
2019-08-14 08:00:00 14.6 2 Este 7 Este 0 987.5 0.9 51
2019-08-14 07:00:00 14 5 Este 11 Este 0 987.2 0.7 51
2019-08-14 06:00:00 13.6 4 Este 7 Este 0 986.9 0.7 54
2019-08-14 05:00:00 14.9 4 Sudeste 10 Este 0 986.6 0.6 52
2019-08-14 04:00:00 15.8 4 Sudeste 9 Sudeste 0 986.5 0.8 50
2019-08-14 03:00:00 16.3 6 Nordeste 8 Nordeste 0 986.2 0.8 47
2019-08-14 02:00:00 17.7 6 Nordeste 9 Nordeste 0 986 0.8 39
2019-08-14 01:00:00 19.5 0 Calma 6 Sur 0 985.7 1.1 38
2019-08-14 00:00:00 21.6 2 Sur 5 Oeste 0 985.4 1.2 32
2019-08-13 23:00:00 24.1 4 Oeste 14 Oeste 0 985.2 1.1 24
2019-08-13 22:00:00 26 7 Oeste 11 Oeste 0 984.6 0.4 18
2019-08-13 21:00:00 30.4 5 Oeste 17 Oeste 0 984.2 -0.3 13
2019-08-13 20:00:00 32.3 6 Oeste 17 Oeste 0 984.1 -0.9 12
2019-08-13 19:00:00 33.4 6 Noroeste 20 Oeste 0 984.2 -1.3 10
2019-08-13 18:00:00 34.3 4 Noroeste 20 Oeste 0 984.5 -1.7 11
2019-08-13 17:00:00 33.2 6 Oeste 19 Noroeste 0 985 -1.6 13
2019-08-13 16:00:00 33.3 7 Sudoeste 21 Sur 0 985.5 -1.9 13
2019-08-13 15:00:00 32.1 9 Sur 18 Oeste 0 986.2 -1.5 14
2019-08-13 14:00:00 30.6 5 Sudeste 24 Este 0 986.6 -1.1 18
2019-08-13 13:00:00 28.9 8 Este 30 Este 0 987.4 -0.5 21
2019-08-13 12:00:00 27.1 14 Este 36 Este 0 987.7 0.1 23
2019-08-13 11:00:00 25.9 15 Este 28 Sudeste 0 987.7 0.3 25
2019-08-13 10:00:00 23.5 15 Este 31 Este 0 987.9 1.3 30
2019-08-13 09:00:00 19.6 8 Nordeste 16 Este 0 987.6 1.1 39
2019-08-13 08:00:00 15.5 9 Nordeste 14 Nordeste 0 987.4 0.9 50
2019-08-13 07:00:00 14.5 7 Este 11 Este 0 986.6 0.2 47
2019-08-13 06:00:00 16.9 3 Este 16 Sudeste 0 986.5 0.4 38
2019-08-13 05:00:00 16.5 10 Este 15 Este 0 986.5 0.1 41
2019-08-13 04:00:00 15.2 9 Nordeste 13 Nordeste 0 986.4 0.2 50
2019-08-13 03:00:00 15.6 6 Nordeste 9 Nordeste 0 986.1 0.4 45
2019-08-13 02:00:00 17.6 3 Sudoeste 5 Sur 0 986.4 1 39
2019-08-13 01:00:00 19.1 4 Oeste 9 Oeste 0 986.2 1.4 34
2019-08-13 00:00:00 21.3 2 Noroeste 6 Oeste 0 985.7 1.2 31
2019-08-12 23:00:00 21.3 3 Sudoeste 11 Este 0 985.4 1.3 31
2019-08-12 22:00:00 24.5 6 Nordeste 16 Nordeste 0 984.8 0.5 23
2019-08-12 21:00:00 27.4 4 Nordeste 14 Nordeste 0 984.5 -0.1 19
2019-08-12 20:00:00 29.3 12 Norte 22 Nordeste 0 984.1 -0.8 15
2019-08-12 19:00:00 30.6 4 Noroeste 19 Nordeste 0 984.3 -1.3 14
2019-08-12 18:00:00 31 6 Norte 30 Oeste 0 984.6 -1.6 14
2019-08-12 17:00:00 30.7 6 Norte 40 Este 0 984.9 -2 14
2019-08-12 16:00:00 29.7 9 Norte 22 Este 0 985.6 -1.6 15
2019-08-12 15:00:00 29.6 7 Sur 26 Sur 0 986.2 -1.4 15
2019-08-12 14:00:00 28.4 9 Sur 19 Sur 0 986.9 -0.5 17
2019-08-12 13:00:00 27.2 6 Norte 20 Nordeste 0 987.2 0.1 21
2019-08-12 12:00:00 25.6 5 Este 25 Este 0 987.6 0.9 25
2019-08-12 11:00:00 24.3 8 Este 17 Nordeste 0 987.4 1.3 27
2019-08-12 10:00:00 21.7 5 Nordeste 12 Nordeste 0 987.1 1.7 33
2019-08-12 09:00:00 17.6 5 Nordeste 10 Nordeste 0 986.7 1.5 49
2019-08-12 08:00:00 12.1 5 Nordeste 9 Sudeste 0 986.1 0.9 66
2019-08-12 07:00:00 12.1 4 Este 8 Norte 0 985.4 0.4 65
2019-08-12 06:00:00 13.3 3 Oeste 11 Sudoeste 0 985.2 0 60
2019-08-12 05:00:00 14.8 7 Nordeste 11 Nordeste 0 985.2 -0.1 55
2019-08-12 04:00:00 16.9 4 Sudoeste 13 Sudoeste 0 985 -0.3 49
2019-08-12 03:00:00 17.6 3 Sudoeste 16 Sudoeste 0 985.2 0.2 46
2019-08-12 02:00:00 -- -- -- -- -- -- -- -- --
2019-08-12 01:00:00 -- -- -- -- -- -- -- -- --
2019-08-12 00:00:00 -- -- -- -- -- -- -- -- --
2019-08-11 23:00:00 -- -- -- -- -- -- -- -- --
2019-08-11 22:00:00 -- -- -- -- -- -- -- -- --
2019-08-11 21:00:00 -- -- -- -- -- -- -- -- --
2019-08-11 20:00:00 -- -- -- -- -- -- -- -- --
2019-08-11 19:00:00 29.1 17 Oeste 45 Oeste 0 983.4 -0.8 16
2019-08-11 18:00:00 29.3 25 Oeste 48 Oeste 0 983.5 -1.2 15
2019-08-11 17:00:00 30 17 Oeste 45 Oeste 0 983.9 -1.1 18
2019-08-11 16:00:00 29 18 Oeste 43 Sudoeste 0 984.2 -1.3 24
2019-08-11 15:00:00 28.6 19 Oeste 51 Oeste 0 984.7 -0.9 24
2019-08-11 14:00:00 27.9 18 Oeste 41 Oeste 0 985 -0.4 26
2019-08-11 13:00:00 26.3 18 Oeste 35 Sudoeste 0 985.5 0 34
2019-08-11 12:00:00 24.9 18 Oeste 36 Sudoeste 0 985.6 0.5 37
2019-08-11 11:00:00 23.7 18 Oeste 36 Oeste 0 985.4 0.9 43
2019-08-11 10:00:00 21.3 23 Oeste 36 Oeste 0 985.5 1.8 50
2019-08-11 09:00:00 20.3 16 Sudoeste 36 Oeste 0 985.1 2 53
2019-08-11 08:00:00 19.5 18 Sudoeste 33 Sudoeste 0 984.5 1.9 55
2019-08-11 07:00:00 20.2 18 Sudoeste 39 Sudoeste 0 983.7 0.1 53
2019-08-11 06:00:00 20.8 5 Noroeste 16 Noroeste 0 983.1 -0.2 51
2019-08-11 05:00:00 22.6 8 Sudoeste 26 Sudoeste 0 982.6 -0.7 45
2019-08-11 04:00:00 23.3 18 Sudoeste 40 Sudoeste 0 983.6 0.6 43
2019-08-11 03:00:00 24.2 21 Oeste 36 Oeste 0 983.3 0.1 38
2019-08-11 02:00:00 25.2 19 Sudoeste 36 Sudoeste 0 983.3 -0.4 34
2019-08-11 01:00:00 25.7 16 Sudoeste 28 Oeste 0 983 -0.6 33
2019-08-11 00:00:00 25.4 9 Oeste 14 Sudoeste 0 983.2 -0.4 32
2019-08-10 23:00:00 25.2 7 Sudoeste 10 Oeste 0 983.7 0.1 31
2019-08-10 22:00:00 26 6 Oeste 20 Noroeste 0 983.6 -0.2 29
2019-08-10 21:00:00 28.2 9 Noroeste 26 Noroeste 0 983.6 -0.6 26
2019-08-10 20:00:00 29.9 11 Noroeste 30 Oeste 0 983.6 -1 16
2019-08-10 19:00:00 31.3 10 Noroeste 26 Norte 0 983.8 -1.8 16
2019-08-10 18:00:00 31.6 10 Noroeste 28 Noroeste 0 984.2 -2.1 14
2019-08-10 17:00:00 31.8 9 Noroeste 26 Oeste 0 984.6 -2.4 15
2019-08-10 16:00:00 32.1 8 Noroeste 28 Noroeste 0 985.6 -1.5 14
2019-08-10 15:00:00 30.6 8 Noroeste 27 Oeste 0 986.3 -1.1 19
2019-08-10 14:00:00 29.4 6 Noroeste 25 Noroeste 0 987 -0.8 29
2019-08-10 13:00:00 27.8 8 Noroeste 24 Oeste 0 987.1 -0.8 33
2019-08-10 12:00:00 26.6 6 Noroeste 26 Noroeste 0 987.4 -0.4 41
2019-08-10 11:00:00 23 6 Noroeste 15 Noroeste 0 987.8 0.3 54
2019-08-10 10:00:00 20.8 8 Norte 14 Noroeste 0 987.9 1 63
2019-08-10 09:00:00 17.9 2 Oeste 6 Noroeste 0 987.8 1.3 80
2019-08-10 08:00:00 13.4 0 Calma 6 Norte 0 987.5 1 88
2019-08-10 07:00:00 13.4 3 Noroeste 6 Noroeste 0 986.9 0.4 91
2019-08-10 06:00:00 13.8 4 Sur 7 Sudoeste 0 986.5 0.2 92
2019-08-10 05:00:00 13.8 4 Oeste 7 Oeste 0 986.5 0.3 90
2019-08-10 04:00:00 14.7 3 Norte 8 Nordeste 0 986.5 0.4 88
2019-08-10 03:00:00 15.7 2 Norte 8 Nordeste 0 986.3 0.1 86
2019-08-10 02:00:00 16.5 5 Este 12 Oeste 0 986.2 0.2 84
2019-08-10 01:00:00 17.3 9 Sudoeste 14 Oeste 0 986.1 0.3 82
2019-08-10 00:00:00 18.6 2 Sur 18 Sudoeste 0 986.2 0.9 77
2019-08-09 23:00:00 19.3 12 Sudoeste 22 Sudoeste 0 986 0.8 75
2019-08-09 22:00:00 20.4 11 Oeste 23 Oeste 0 985.8 0.4 68
2019-08-09 21:00:00 22.4 13 Oeste 28 Oeste 0 985.3 -0.2 62
2019-08-09 20:00:00 22.9 14 Oeste 33 Oeste 0 985.2 -0.2 63
2019-08-09 19:00:00 23.4 14 Oeste 42 Noroeste 0 985.4 0.4 62
2019-08-09 18:00:00 25.2 19 Noroeste 52 Noroeste 0 985.5 0.9 54
2019-08-09 17:00:00 24.3 20 Noroeste 55 Oeste 0 985.4 0.6 64
2019-08-09 16:00:00 25.4 19 Noroeste 47 Oeste 0 985 -0.2 69
2019-08-09 15:00:00 28.3 11 Noroeste 28 Noroeste 0 984.6 -0.7 58
2019-08-09 14:00:00 26.8 5 Norte 17 Noroeste 0 984.8 -0.1 62
2019-08-09 13:00:00 25.7 7 Norte 15 Norte 0 985.2 0.7 68
2019-08-09 12:00:00 24 8 Norte 23 Sudoeste 0 985.3 1.2 77
2019-08-09 11:00:00 24.4 17 Sudoeste 27 Oeste 0 984.9 0.9 69
2019-08-09 10:00:00 24.1 12 Sudoeste 23 Sudoeste 0 984.5 0.6 67
2019-08-09 09:00:00 23.9 10 Sudoeste 20 Oeste 0 984.1 0.9 68
2019-08-09 08:00:00 22.8 5 Oeste 18 Oeste 0 984 0.8 73
2019-08-09 07:00:00 21.7 11 Oeste 19 Noroeste 0 983.9 0.7 77
2019-08-09 06:00:00 22.1 9 Oeste 23 Oeste 0 983.2 0.4 75
2019-08-09 05:00:00 22.6 10 Oeste 21 Oeste 0 983.2 0.8 72
2019-08-09 04:00:00 23.7 11 Oeste 21 Oeste 0 983.2 0.9 67
2019-08-09 03:00:00 24.7 10 Oeste 25 Oeste 0 982.8 0.9 61
2019-08-09 02:00:00 25.8 14 Oeste 24 Oeste 0 982.4 0.9 54
2019-08-09 01:00:00 26.4 9 Oeste 23 Noroeste 0 982.3 1.6 51
2019-08-09 00:00:00 27.6 10 Oeste 23 Oeste 0 981.9 1.8 47
2019-08-08 23:00:00 28.7 7 Noroeste 21 Noroeste 0 981.5 1.5 43
2019-08-08 22:00:00 30.6 8 Oeste 25 Oeste 0 980.7 0.6 37
2019-08-08 21:00:00 32.3 14 Oeste 31 Sudoeste 0 980.1 -0.2 28
2019-08-08 20:00:00 33.7 14 Oeste 40 Oeste 0 980 -0.6 26
2019-08-08 19:00:00 34.6 17 Oeste 40 Oeste 0 980.1 -1.2 23
2019-08-08 18:00:00 35.6 21 Oeste 39 Oeste 0 980.3 -1.7 21
2019-08-08 17:00:00 35.3 19 Sudoeste 43 Oeste 0 980.6 -1.9 21
2019-08-08 16:00:00 35.3 10 Oeste 36 Oeste 0 981.3 -1.6 23
2019-08-08 15:00:00 33.9 8 Norte 25 Norte 0 982 -1.2 25
2019-08-08 14:00:00 32.6 18 Oeste 34 Oeste 0 982.5 -0.9 27
2019-08-08 13:00:00 31.2 12 Oeste 23 Sudoeste 0 982.9 -0.6 30
2019-08-08 12:00:00 30 5 Noroeste 13 Nordeste 0 983.2 -0.2 34
2019-08-08 11:00:00 28.5 4 Sudoeste 10 Sudoeste 0 983.4 0.1 40
2019-08-08 10:00:00 25.6 3 Oeste 8 Sudoeste 0 983.5 0.6 50
2019-08-08 09:00:00 21.5 3 Nordeste 7 Nordeste 0 983.4 0.7 67
2019-08-08 08:00:00 18.2 2 Oeste 6 Sudeste 0 983.3 0.3 78
2019-08-08 07:00:00 17.3 5 Sur 6 Sur 0 982.9 -0.2 83
2019-08-08 06:00:00 17.9 3 Este 5 Norte 0 982.7 -0.6 79
2019-08-08 05:00:00 18.1 4 Nordeste 6 Nordeste 0 983 -0.4 78
2019-08-08 04:00:00 18.6 2 Noroeste 5 Noroeste 0 983.1 -0.2 72
2019-08-08 03:00:00 19.5 3 Oeste 7 Oeste 0 983.3 0.2 69
2019-08-08 02:00:00 20 4 Oeste 9 Sudoeste 0 983.4 0.2 67
2019-08-08 01:00:00 19.4 6 Sudoeste 8 Sudoeste 0 983.3 0.7 70
2019-08-08 00:00:00 20.9 4 Oeste 6 Oeste 0 983.1 0.9 64
2019-08-07 23:00:00 22.6 4 Sudoeste 7 Sur 0 983.2 1.1 57
2019-08-07 22:00:00 24.3 3 Noroeste 14 Noroeste 0 982.6 0.3 51
2019-08-07 21:00:00 25.8 5 Noroeste 20 Oeste 0 982.2 -0.4 45
2019-08-07 20:00:00 26.4 8 Noroeste 22 Noroeste 0 982.1 -0.8 42
2019-08-07 19:00:00 27.3 6 Noroeste 23 Noroeste 0 982.3 -0.9 40
2019-08-07 18:00:00 28.2 8 Noroeste 24 Oeste 0 982.6 -0.9 36
2019-08-07 17:00:00 27 12 Oeste 21 Oeste 0 982.9 -0.9 35
2019-08-07 16:00:00 26.7 9 Oeste 25 Oeste 0 983.2 -0.7 37
2019-08-07 15:00:00 24.9 9 Oeste 27 Oeste 0.2 983.5 0.4 55
2019-08-07 14:00:00 23.3 10 Oeste 27 Noroeste 0 983.8 1.6 67
2019-08-07 13:00:00 22.9 13 Oeste 24 Sudoeste 0 983.9 2.2 67
2019-08-07 12:00:00 24.2 13 Oeste 25 Oeste 0 983.1 2.1 57
2019-08-07 11:00:00 24.2 15 Oeste 28 Sudoeste 0 982.2 1.7 53
2019-08-07 10:00:00 23.5 15 Oeste 28 Sudoeste 0 981.7 1.6 55
2019-08-07 09:00:00 22.9 12 Oeste 28 Sudoeste 0 981 1.6 56
2019-08-07 08:00:00 22.6 15 Sudoeste 26 Oeste 0 980.5 1.1 57
2019-08-07 07:00:00 23 11 Oeste 23 Oeste 0 980.1 0.9 55
2019-08-07 06:00:00 23.4 12 Sudoeste 23 Oeste 0 979.4 0.1 55
2019-08-07 05:00:00 23.9 15 Oeste 25 Oeste 0 979.4 -0.1 52
2019-08-07 04:00:00 24.6 14 Sudoeste 27 Sudoeste 0 979.2 -0.5 49
2019-08-07 03:00:00 25.3 16 Sudoeste 27 Sudoeste 0 979.3 -0.5 45
2019-08-07 02:00:00 26.1 14 Sudoeste 26 Sudoeste 0 979.5 0 41
2019-08-07 01:00:00 27.4 12 Oeste 27 Oeste 0 979.7 1 36
2019-08-07 00:00:00 28.4 13 Oeste 23 Noroeste 0 979.8 1.5 32
2019-08-06 23:00:00 29.5 9 Oeste 27 Oeste 0 979.5 1.6 29
2019-08-06 22:00:00 30.3 10 Oeste 19 Oeste 0 978.7 0.5 27
2019-08-06 21:00:00 33.1 11 Oeste 23 Noroeste 0 978.3 -0.3 19
2019-08-06 20:00:00 34.4 11 Oeste 27 Sudoeste 0 977.9 -1.2 16
2019-08-06 19:00:00 35.5 14 Oeste 31 Oeste 0 978.2 -1.4 14
2019-08-06 18:00:00 37.1 10 Oeste 41 Oeste 0 978.6 -1.6 14
2019-08-06 17:00:00 37.3 16 Oeste 37 Oeste 0 979.1 -2 13
2019-08-06 16:00:00 36.7 14 Oeste 38 Sur 0 979.6 -2.1 14
2019-08-06 15:00:00 35.7 11 Oeste 34 Oeste 0 980.2 -1.8 15
2019-08-06 14:00:00 34.3 7 Oeste 20 Noroeste 0 981.1 -1.1 23
2019-08-06 13:00:00 32.2 6 Oeste 20 Norte 0 981.7 -0.6 25
2019-08-06 12:00:00 30.8 6 Noroeste 16 Oeste 0 982 -0.2 28
2019-08-06 11:00:00 28 4 Oeste 15 Noroeste 0 982.2 0.3 34
2019-08-06 10:00:00 26 3 Noroeste 10 Noroeste 0 982.3 0.6 38
2019-08-06 09:00:00 23 2 Nordeste 8 Noroeste 0 982.2 1.2 44
2019-08-06 08:00:00 17.8 2 Este 13 Oeste 0 981.9 1 56
2019-08-06 07:00:00 15.6 4 Sudoeste 6 Sur 0 981.7 0.7 59
2019-08-06 06:00:00 17 3 Sudeste 5 Sudeste 0 981 0.1 54
2019-08-06 05:00:00 17.8 3 Este 9 Este 0 980.9 0.2 50
2019-08-06 04:00:00 19.1 6 Nordeste 10 Este 0 981 0.3 44
2019-08-06 03:00:00 21.8 3 Norte 19 Sudoeste 0 980.9 0.3 34
2019-08-06 02:00:00 25.1 13 Sudoeste 20 Sudoeste 0 980.7 0.2 26
2019-08-06 01:00:00 22.9 10 Sudoeste 16 Sudoeste 0 980.7 0.7 27
2019-08-06 00:00:00 22.4 7 Sudoeste 9 Sudoeste 0 980.6 0.8 28
2019-08-05 23:00:00 24.6 6 Oeste 7 Oeste 0 980.5 1 24
2019-08-05 22:00:00 29.5 4 Noroeste 10 Noroeste 0 980 0.4 15
2019-08-05 21:00:00 33.8 5 Noroeste 26 Noroeste 0 979.8 0 10
2019-08-05 20:00:00 35.7 11 Oeste 25 Noroeste 0 979.5 -0.6 9
2019-08-05 19:00:00 37.1 8 Oeste 26 Oeste 0 979.6 -1.2 9
2019-08-05 18:00:00 37.2 15 Noroeste 36 Sudoeste 0 979.8 -1.6 9
2019-08-05 17:00:00 37.3 11 Noroeste 30 Noroeste 0 980.1 -2 11
2019-08-05 16:00:00 35.8 11 Norte 31 Noroeste 0 980.8 -1.8 13
2019-08-05 15:00:00 35.5 8 Noroeste 27 Norte 0 981.4 -1.7 14
2019-08-05 14:00:00 34.4 8 Noroeste 20 Norte 0 982.1 -1.3 15
2019-08-05 13:00:00 32.4 5 Norte 18 Norte 0 982.6 -0.9 20
2019-08-05 12:00:00 29.9 5 Oeste 18 Oeste 0 983.1 -0.4 27
2019-08-05 11:00:00 27.3 7 Oeste 15 Sudoeste 0 983.4 0.1 37
2019-08-05 10:00:00 24.7 6 Oeste 19 Noroeste 0 983.5 0.6 46
2019-08-05 09:00:00 21.4 7 Oeste 14 Oeste 0 983.5 0.8 57
2019-08-05 08:00:00 18.7 2 Noroeste 8 Noroeste 0 983.3 0.5 63
2019-08-05 07:00:00 17.2 4 Oeste 8 Oeste 0 982.9 0.3 68
2019-08-05 06:00:00 18.7 4 Noroeste 11 Noroeste 0 982.7 0.3 61
2019-08-05 05:00:00 20.4 5 Noroeste 16 Oeste 0 982.8 0.4 53
2019-08-05 04:00:00 23 9 Oeste 19 Oeste 0 982.6 0.3 44
2019-08-05 03:00:00 24 11 Oeste 27 Sudoeste 0 982.4 0.3 40
2019-08-05 02:00:00 25 14 Sudoeste 25 Oeste 0 982.4 0.7 33
2019-08-05 01:00:00 27.3 13 Oeste 27 Oeste 0 982.3 1.1 27
2019-08-05 00:00:00 29 16 Oeste 39 Oeste 0 982.1 1.5 25
2019-08-04 23:00:00 29.2 12 Oeste 23 Oeste 0 981.7 1.5 24
2019-08-04 22:00:00 30.4 6 Oeste 16 Noroeste 0 981.2 1.1 23
2019-08-04 21:00:00 34.2 8 Noroeste 24 Noroeste 0 980.6 0.3 16
2019-08-04 20:00:00 35.9 9 Oeste 26 Sudoeste 0 980.2 -0.4 15
2019-08-04 19:00:00 36.9 11 Oeste 28 Oeste 0 980.1 -1.2 14
2019-08-04 18:00:00 37.6 8 Noroeste 33 Sudoeste 0 980.3 -1.5 14
2019-08-04 17:00:00 37.4 12 Oeste 27 Noroeste 0 980.6 -1.7 15
2019-08-04 16:00:00 36.9 9 Sudoeste 28 Oeste 0 981.3 -1.6 15
2019-08-04 15:00:00 35.3 13 Sudoeste 31 Oeste 0 981.8 -1.4 19
2019-08-04 14:00:00 34.4 7 Oeste 27 Oeste 0 982.3 -1.1 22
2019-08-04 13:00:00 32.8 8 Oeste 21 Oeste 0 982.9 -0.4 25
2019-08-04 12:00:00 30.9 6 Noroeste 21 Oeste 0 983.2 0.1 31
2019-08-04 11:00:00 28.5 7 Oeste 17 Oeste 0 983.4 0.9 35
2019-08-04 10:00:00 25.8 6 Oeste 15 Noroeste 0 983.3 1.4 41
2019-08-04 09:00:00 23.1 3 Noroeste 10 Oeste 0 983.1 1.6 47
2019-08-04 08:00:00 18.2 4 Nordeste 7 Nordeste 0 982.5 1.1 58
2019-08-04 07:00:00 17.1 5 Sudeste 9 Sudeste 0 981.9 0.7 63
2019-08-04 06:00:00 17.4 5 Sudeste 9 Sudeste 0 981.5 0.5 63
2019-08-04 05:00:00 17.8 4 Este 8 Nordeste 0 981.4 0.6 58
2019-08-04 04:00:00 18.8 3 Norte 8 Nordeste 0 981.2 0.5 49
2019-08-04 03:00:00 21.2 3 Oeste 9 Sudoeste 0 981 0.4 43
2019-08-04 02:00:00 25.1 9 Sudoeste 17 Sudoeste 0 980.8 0.4 31
2019-08-04 01:00:00 23.7 10 Sudoeste 14 Sudoeste 0 980.7 0.9 30
2019-08-04 00:00:00 23.1 8 Sudoeste 11 Sudoeste 0 980.6 1.4 32
2019-08-03 23:00:00 26 4 Oeste 10 Noroeste 0 980.4 1.3 23
2019-08-03 22:00:00 29.3 5 Oeste 9 Oeste 0 979.8 0.4 18
2019-08-03 21:00:00 34.1 5 Oeste 21 Noroeste 0 979.2 -0.4 13
2019-08-03 20:00:00 36 10 Oeste 26 Oeste 0 979.1 -1.1 11
2019-08-03 19:00:00 37.5 7 Noroeste 35 Oeste 0 979.4 -1.3 11
2019-08-03 18:00:00 37.5 12 Noroeste 31 Noroeste 0 979.6 -1.7 12
2019-08-03 17:00:00 37.2 13 Noroeste 33 Noroeste 0 980.2 -1.7 13
2019-08-03 16:00:00 37.1 11 Noroeste 33 Noroeste 0 980.7 -1.7 15
2019-08-03 15:00:00 36.1 8 Noroeste 27 Oeste 0 981.3 -1.3 14
2019-08-03 14:00:00 35.4 7 Norte 25 Oeste 0 981.9 -1 15
2019-08-03 13:00:00 33.8 7 Norte 14 Norte 0 982.4 -0.5 20
2019-08-03 12:00:00 32.3 4 Noroeste 12 Noroeste 0 982.6 -0.3 20
2019-08-03 11:00:00 29.9 3 Norte 15 Norte 0 982.9 0.6 27
2019-08-03 10:00:00 26.9 5 Norte 10 Nordeste 0 982.9 1.2 31
2019-08-03 09:00:00 21.5 4 Este 14 Este 0 982.9 1.8 34
2019-08-03 08:00:00 16.7 9 Este 14 Este 0 982.3 1.3 51
2019-08-03 07:00:00 15.5 4 Este 8 Este 0 981.7 0.8 56
2019-08-03 06:00:00 16.1 4 Este 9 Sudeste 0 981.1 0.5 56
2019-08-03 05:00:00 17 4 Sur 9 Sudeste 0 981 0.2 55
2019-08-03 04:00:00 18.4 4 Nordeste 10 Norte 0 980.9 0.1 43
2019-08-03 03:00:00 20.5 3 Noroeste 11 Oeste 0 980.6 -0.4 34
2019-08-03 02:00:00 20.4 8 Oeste 17 Oeste 0 980.8 -0.2 39
2019-08-03 01:00:00 21.7 5 Oeste 8 Sudoeste 0 980.8 0.2 31
2019-08-03 00:00:00 23.6 6 Sudoeste 9 Sudoeste 0 981 0.7 25
2019-08-02 23:00:00 25.2 4 Oeste 8 Oeste 0 981 0.9 20
2019-08-02 22:00:00 28.9 5 Oeste 9 Oeste 0 980.6 0.3 15
2019-08-02 21:00:00 34.4 4 Noroeste 17 Oeste 0 980.3 -0.3 10
2019-08-02 20:00:00 36 7 Noroeste 22 Noroeste 0 980.1 -1.1 8
2019-08-02 19:00:00 37.5 8 Oeste 27 Oeste 0 980.3 -1.5 7
2019-08-02 18:00:00 37.3 8 Noroeste 24 Noroeste 0 980.6 -1.7 8
2019-08-02 17:00:00 37.3 7 Noroeste 26 Oeste 0 981.2 -1.6 9
2019-08-02 16:00:00 36.3 4 Nordeste 22 Sudoeste 0 981.8 -1.7 10
2019-08-02 15:00:00 35.9 10 Sur 21 Sudoeste 0 982.3 -1.5 11
2019-08-02 14:00:00 33.9 9 Norte 21 Oeste 0 982.8 -1 14
2019-08-02 13:00:00 32.3 5 Noroeste 15 Noroeste 0 983.5 -0.3 19
2019-08-02 12:00:00 29.9 4 Noroeste 13 Oeste 0 983.8 0.4 25
2019-08-02 11:00:00 27.4 5 Noroeste 13 Oeste 0 983.8 1.1 31
2019-08-02 10:00:00 24.4 3 Noroeste 15 Noroeste 0 983.8 1.7 40
2019-08-02 09:00:00 21.4 3 Noroeste 10 Noroeste 0 983.4 1.6 47
2019-08-02 08:00:00 17 0 Calma 6 Sur 0 982.7 0.9 61
2019-08-02 07:00:00 15.5 4 Sur 7 Sur 0 982.1 0.4 64
2019-08-02 06:00:00 16.9 3 Noroeste 6 Nordeste 0 981.8 0.3 54
2019-08-02 05:00:00 18.5 3 Noroeste 9 Noroeste 0 981.8 0.3 47
2019-08-02 04:00:00 21.9 4 Noroeste 9 Oeste 0 981.7 0.4 35
2019-08-02 03:00:00 24.1 6 Oeste 19 Sudoeste 0 981.5 0.4 30
2019-08-02 02:00:00 25.2 12 Sudoeste 23 Sudoeste 0 981.5 0.6 28
2019-08-02 01:00:00 26 15 Sudoeste 23 Sudoeste 0 981.3 1.4 25
2019-08-02 00:00:00 24 9 Sudoeste 13 Sudoeste 0 981.1 1.6 30
2019-08-01 23:00:00 24.4 6 Oeste 12 Oeste 0 980.9 1.8 31
2019-08-01 22:00:00 28.9 5 Oeste 10 Noroeste 0 979.9 0.9 21
2019-08-01 21:00:00 33.3 6 Noroeste 21 Norte 0 979.5 0.5 14
2019-08-01 20:00:00 34.6 8 Noroeste 27 Noroeste 0 979.1 -0.2 13
2019-08-01 19:00:00 35.5 12 Noroeste 29 Noroeste 0 979 -0.8 13
2019-08-01 18:00:00 36.8 8 Oeste 27 Noroeste 0 979 -1.2 14
2019-08-01 17:00:00 36.5 8 Oeste 29 Oeste 0 979.3 -1.4 13
2019-08-01 16:00:00 36.2 7 Oeste 31 Oeste 0 979.8 -1 13
2019-08-01 15:00:00 35.5 10 Oeste 31 Noroeste 0 980.2 -0.8 15
2019-08-01 14:00:00 34 9 Oeste 25 Oeste 0 980.7 -0.3 18
2019-08-01 13:00:00 32.5 6 Oeste 20 Oeste 0 980.8 -0.1 27
2019-08-01 12:00:00 31.2 5 Sudoeste 15 Sur 0 981 0.2 31
2019-08-01 11:00:00 29.9 6 Este 19 Nordeste 0 981 0.6 37
2019-08-01 10:00:00 27.6 11 Sudeste 19 Este 0 980.9 0.9 43
2019-08-01 09:00:00 24.7 3 Este 7 Nordeste 0 980.8 1.2 38
2019-08-01 08:00:00 19.7 3 Nordeste 12 Nordeste 0 980.4 1 52
2019-08-01 07:00:00 18.3 7 Nordeste 10 Nordeste 0 980 0.7 52
2019-08-01 06:00:00 19.5 3 Este 16 Este 0 979.6 0.7 44
2019-08-01 05:00:00 19.7 4 Sur 12 Sur 0 979.4 0.7 45
2019-08-01 04:00:00 20.7 4 Sudeste 13 Nordeste 0 979.3 0.8 39
2019-08-01 03:00:00 22.3 8 Norte 15 Nordeste 0 978.9 0.5 32
2019-08-01 02:00:00 24 9 Oeste 15 Oeste 0 978.7 0.4 27
2019-08-01 01:00:00 24.4 8 Sudoeste 14 Oeste 0 978.5 0.6 29
2019-08-01 00:00:00 24 6 Sur 9 Oeste 0 978.4 0.6 36
2019-07-31 23:00:00 24.4 6 Oeste 10 Oeste 0 978.3 0.5 42
2019-07-31 22:00:00 27.3 5 Oeste 8 Noroeste 0 977.9 0 32
2019-07-31 21:00:00 32 3 Nordeste 9 Norte 0 977.8 -0.4 22
2019-07-31 20:00:00 34.2 7 Nordeste 15 Norte 0 977.8 -1.1 15
2019-07-31 19:00:00 35.1 10 Norte 25 Nordeste 0 977.9 -1.7 15
2019-07-31 18:00:00 36.1 5 Noroeste 21 Norte 0 978.2 -2.2 15
2019-07-31 17:00:00 35.8 12 Norte 27 Norte 0 978.9 -2 16
2019-07-31 16:00:00 35.1 7 Norte 24 Sur 0 979.6 -2 16
2019-07-31 15:00:00 34.7 7 Sur 29 Sudeste 0 980.4 -1.8 19
2019-07-31 14:00:00 33.3 11 Sudeste 31 Sudeste 0 980.9 -1.4 22
2019-07-31 13:00:00 31.7 13 Este 36 Sudeste 0 981.6 -0.7 31
2019-07-31 12:00:00 29.6 18 Este 36 Sudeste 0 982.2 0.1 38
2019-07-31 11:00:00 28.5 18 Este 42 Sudeste 0 982.3 0.2 39
2019-07-31 10:00:00 27.2 17 Este 35 Sudeste 0 982.3 0.1 35
2019-07-31 09:00:00 23.3 9 Este 19 Este 0 982.1 0.2 38
2019-07-31 08:00:00 18.3 8 Este 13 Este 0 982.1 0.1 47
2019-07-31 07:00:00 16.5 9 Nordeste 15 Este 0 982.2 0.2 51
2019-07-31 06:00:00 18.7 9 Este 19 Este 0 981.9 0.3 45
2019-07-31 05:00:00 15.6 7 Nordeste 11 Nordeste 0 982 0.1 62
2019-07-31 04:00:00 16.3 4 Este 12 Sudeste 0 982 0.5 56
2019-07-31 03:00:00 17.6 4 Sudeste 12 Norte 0 981.6 0.2 50
2019-07-31 02:00:00 17.7 5 Norte 9 Este 0 981.9 0.6 50
2019-07-31 01:00:00 18.9 5 Sudoeste 7 Sudoeste 0 981.5 0.9 48
2019-07-31 00:00:00 20.5 5 Sudoeste 7 Sudoeste 0 981.4 1 41
2019-07-30 23:00:00 22.3 5 Oeste 9 Norte 0 981.3 0.9 34
2019-07-30 22:00:00 26.4 3 Noroeste 7 Noroeste 0 980.6 -0.1 26
2019-07-30 21:00:00 30.6 3 Noroeste 16 Este 0 980.4 -0.8 17
2019-07-30 20:00:00 31.7 3 Norte 14 Norte 0 980.4 -1.3 14
2019-07-30 19:00:00 32.4 8 Nordeste 17 Nordeste 0 980.7 -1.7 13
2019-07-30 18:00:00 32.7 6 Nordeste 21 Este 0 981.2 -2 13
2019-07-30 17:00:00 32.5 9 Norte 21 Nordeste 0 981.7 -2.2 14
2019-07-30 16:00:00 32.2 7 Sudoeste 19 Oeste 0 982.4 -2 13
2019-07-30 15:00:00 31 6 Este 19 Este 0 983.2 -1.5 14
2019-07-30 14:00:00 29.6 10 Sudeste 24 Nordeste 0 983.9 -1 17
2019-07-30 13:00:00 28.5 7 Nordeste 20 Este 0 984.4 -0.6 21
2019-07-30 12:00:00 26.6 9 Nordeste 19 Nordeste 0 984.7 0.2 25
2019-07-30 11:00:00 25.2 5 Sudeste 17 Sudeste 0 984.9 1.4 28
2019-07-30 10:00:00 22.6 2 Sudoeste 6 Sur 0 985 1.9 35
2019-07-30 09:00:00 19.5 0 Calma 6 Este 0 984.5 2 46
2019-07-30 08:00:00 14.6 4 Sur 8 Este 0 983.5 1.4 66
2019-07-30 07:00:00 12.9 4 Norte 12 Norte 0 983.1 1.2 68
2019-07-30 06:00:00 15.7 4 Oeste 14 Sudeste 0 982.5 0.5 56
2019-07-30 05:00:00 14.3 6 Sudeste 12 Sudeste 0 982.1 0.5 61
2019-07-30 04:00:00 15.4 4 Oeste 8 Oeste 0 981.9 0.7 52
2019-07-30 03:00:00 17.7 0 Calma 9 Sudoeste 0 982 1 43
2019-07-30 02:00:00 19.5 5 Oeste 18 Sudoeste 0 981.6 0.6 35
2019-07-30 01:00:00 22.1 13 Sudoeste 25 Sudoeste 0 981.2 0.9 29
2019-07-30 00:00:00 22.4 12 Sudoeste 21 Sudoeste 0 981 1.2 30
2019-07-29 23:00:00 24.4 10 Oeste 21 Oeste 0 981 1.5 26
2019-07-29 22:00:00 26.5 9 Oeste 26 Noroeste 0 980.3 0.9 22
2019-07-29 21:00:00 29.3 10 Noroeste 37 Oeste 0 979.8 0.4 16
2019-07-29 20:00:00 31.1 13 Oeste 38 Noroeste 0 979.5 -0.2 14
2019-07-29 19:00:00 32.6 14 Oeste 36 Oeste 0 979.4 -0.5 12
2019-07-29 18:00:00 32.9 17 Oeste 39 Oeste 0 979.4 -0.7 19
2019-07-29 17:00:00 33.1 16 Oeste 45 Noroeste 0 979.7 -0.6 16
2019-07-29 16:00:00 32.4 16 Oeste 42 Noroeste 0 979.9 -0.6 19
2019-07-29 15:00:00 32.1 13 Oeste 37 Noroeste 0 980.1 -0.6 20
2019-07-29 14:00:00 30.5 23 Oeste 43 Oeste 0 980.3 -0.5 23
2019-07-29 13:00:00 29.9 18 Oeste 39 Oeste 0 980.5 -0.2 23
2019-07-29 12:00:00 28.7 15 Sudoeste 31 Sudoeste 0 980.7 0.4 24
2019-07-29 11:00:00 25.5 14 Sudoeste 24 Oeste 0 980.8 1.1 29
2019-07-29 10:00:00 23.3 14 Oeste 24 Sudoeste 0 980.7 1.6 38
2019-07-29 09:00:00 21.9 11 Oeste 22 Oeste 0 980.3 1.6 45
2019-07-29 08:00:00 20 5 Oeste 15 Oeste 0 979.7 1.2 53
2019-07-29 07:00:00 19.7 6 Oeste 14 Oeste 0 979.1 0.8 55
2019-07-29 06:00:00 20.7 8 Oeste 18 Oeste 0 978.7 0.4 51
2019-07-29 05:00:00 21.8 12 Oeste 22 Oeste 0 978.5 0 45
2019-07-29 04:00:00 22.6 13 Oeste 22 Sudoeste 0 978.3 0.1 44
2019-07-29 03:00:00 23.5 13 Sudoeste 20 Sudoeste 0 978.3 0.2 44
2019-07-29 02:00:00 24.7 13 Sudoeste 28 Oeste 0 978.5 0.4 36
2019-07-29 01:00:00 23.8 12 Sudoeste 19 Oeste 0 978.2 0.7 38
2019-07-29 00:00:00 22.3 6 Sudoeste 8 Sudoeste 0 978.1 0.9 40
2019-07-28 23:00:00 24.3 5 Oeste 9 Norte 0 978.1 1.2 34
2019-07-28 22:00:00 27.6 4 Oeste 14 Noroeste 0 977.5 0.6 27
2019-07-28 21:00:00 31 7 Noroeste 23 Oeste 0 977.2 0 21
2019-07-28 20:00:00 31.9 11 Oeste 27 Oeste 0 976.9 -0.8 23
2019-07-28 19:00:00 33.2 8 Noroeste 26 Noroeste 0 976.9 -1.4 18
2019-07-28 18:00:00 33.6 5 Noroeste 37 Noroeste 0 977.2 -1.7 18
2019-07-28 17:00:00 33.2 10 Oeste 23 Noroeste 0 977.7 -1.7 19
2019-07-28 16:00:00 33.1 5 Sur 22 Oeste 0 978.3 -1.7 21
2019-07-28 15:00:00 32.2 7 Noroeste 24 Noroeste 0 978.9 -1.5 22
2019-07-28 14:00:00 30.3 7 Noroeste 21 Sudeste 0 979.4 -1.2 26
2019-07-28 13:00:00 29.4 6 Sur 27 Este 0 980 -0.9 27
2019-07-28 12:00:00 27.4 14 Este 30 Este 0 980.4 -0.2 31
2019-07-28 11:00:00 26.1 15 Este 33 Sudeste 0 980.6 0.1 34
2019-07-28 10:00:00 24.2 16 Este 30 Este 0 980.9 0.9 41
2019-07-28 09:00:00 22.2 11 Este 23 Este 0 980.6 1.2 50
2019-07-28 08:00:00 17.9 6 Este 11 Este 0 980.5 1.3 74
2019-07-28 07:00:00 15.9 6 Nordeste 8 Nordeste 0 980 1 79
2019-07-28 06:00:00 16.9 4 Este 7 Este 0 979.4 0.6 74
2019-07-28 05:00:00 18.1 3 Este 10 Nordeste 0 979.2 0.5 68
2019-07-28 04:00:00 19.5 6 Nordeste 14 Sudoeste 0 979 0.3 62
2019-07-28 03:00:00 20.9 9 Sudoeste 16 Sudoeste 0 978.8 0 57
2019-07-28 02:00:00 21.5 10 Sudoeste 19 Sudoeste 0 978.7 0.2 55
2019-07-28 01:00:00 22.1 11 Sudoeste 23 Oeste 0 978.7 0.8 51
2019-07-28 00:00:00 23.9 12 Oeste 23 Oeste 0 978.8 1.4 44
2019-07-27 23:00:00 23.2 8 Oeste 24 Noroeste 0 978.5 1.5 47
2019-07-26 12:00:00 27 17 Oeste 36 Oeste 0 981.7 0.1 41
2019-07-26 11:00:00 24.5 21 Sudoeste 35 Sudoeste 0 981.6 0.2 48
2019-07-26 10:00:00 22.9 15 Oeste 31 Oeste 0 981.8 0.9 54
2019-07-26 09:00:00 21.3 17 Sudoeste 32 Sudoeste 0 981.6 0.8 61
2019-07-26 08:00:00 20.4 18 Sudoeste 32 Oeste 0 981.4 0.8 67
2019-07-26 07:00:00 20.9 15 Oeste 34 Oeste 0 980.9 0.3 67
2019-07-26 06:00:00 22.1 17 Sudoeste 29 Sudoeste 0 980.8 0.1 64
2019-07-26 05:00:00 23.2 13 Sudoeste 30 Sudoeste 0 980.6 -0.3 62
2019-07-26 04:00:00 23.9 16 Oeste 35 Sudoeste 0 980.6 -0.2 59
2019-07-26 03:00:00 25.1 19 Oeste 38 Oeste 0 980.7 0.1 54
2019-07-26 02:00:00 26.2 17 Oeste 39 Oeste 0 980.9 0.8 49
2019-07-26 01:00:00 26.7 17 Oeste 44 Oeste 0 980.8 1 46
2019-07-26 00:00:00 27.7 18 Oeste 41 Oeste 0 980.6 0.9 42
2019-07-25 23:00:00 28.9 12 Oeste 22 Oeste 0 980.1 0.8 31
2019-07-25 22:00:00 29.7 5 Noroeste 19 Noroeste 0 979.8 0.4 27
2019-07-25 21:00:00 32.3 8 Noroeste 29 Noroeste 0 979.7 0.2 22
2019-07-25 20:00:00 35 14 Oeste 36 Oeste 0 979.3 -0.7 15
2019-07-25 19:00:00 35.9 15 Oeste 39 Sudoeste 0 979.4 -1.2 16
2019-07-25 18:00:00 36.9 17 Oeste 40 Oeste 0 979.5 -1.6 14
2019-07-25 17:00:00 37.4 12 Noroeste 40 Noroeste 0 980 -1.6 14
2019-07-25 16:00:00 35.7 11 Oeste 30 Oeste 0 980.6 -1.4 16
2019-07-25 15:00:00 35.3 12 Oeste 37 Oeste 0 981.1 -1.3 19
2019-07-25 14:00:00 35.7 10 Oeste 28 Noroeste 0 981.6 -0.8 19
2019-07-25 13:00:00 34.1 6 Noroeste 26 Noroeste 0 982 -0.4 20
2019-07-25 12:00:00 32.4 12 Oeste 23 Oeste 0 982.4 0.3 24
2019-07-25 11:00:00 30.7 7 Noroeste 20 Noroeste 0 982.4 0.8 27
2019-07-25 10:00:00 28 5 Noroeste 13 Oeste 0 982.4 1.4 33
2019-07-25 09:00:00 25.1 3 Oeste 9 Noroeste 0 982.1 1.5 41
2019-07-25 08:00:00 21.9 5 Nordeste 6 Nordeste 0 981.6 1 56
2019-07-25 07:00:00 21.8 2 Noroeste 8 Noroeste 0 981 0.3 56
2019-07-25 06:00:00 24 4 Noroeste 14 Oeste 0 980.6 0.1 44
2019-07-25 05:00:00 25.7 8 Sudoeste 20 Sudoeste 0 980.6 0.2 40
2019-07-25 04:00:00 27 14 Sudoeste 24 Sudoeste 0 980.7 0.7 34
2019-07-25 03:00:00 27.5 15 Sudoeste 23 Oeste 0 980.5 0.7 32
2019-07-25 02:00:00 28.1 12 Sudoeste 26 Oeste 0 980.4 0.9 32
2019-07-25 01:00:00 28.9 15 Sudoeste 24 Sudoeste 0 980 1 30
2019-07-25 00:00:00 30.1 10 Sudoeste 19 Oeste 0 979.8 1.1 30
2019-07-24 23:00:00 29.9 3 Sudoeste 9 Norte 0 979.5 0.9 41
2019-07-24 22:00:00 33.4 3 Oeste 14 Noroeste 0 979 0.2 29
2019-07-24 21:00:00 36.2 2 Oeste 12 Nordeste 0 978.7 -0.7 22
2019-07-24 20:00:00 37.3 5 Este 19 Norte 0 978.6 -1.4 18
2019-07-24 19:00:00 38.2 4 Norte 18 Este 0 978.8 -1.7 17
2019-07-24 18:00:00 38.2 8 Nordeste 24 Nordeste 0 979.4 -1.9 18
2019-07-24 17:00:00 37.6 7 Nordeste 25 Nordeste 0 980 -2 19
2019-07-24 16:00:00 37.9 10 Norte 23 Norte 0 980.5 -2.2 19
2019-07-24 15:00:00 37.2 10 Norte 22 Nordeste 0 981.3 -1.7 19
2019-07-24 14:00:00 36.6 5 Norte 21 Este 0 982 -1.3 20
2019-07-24 13:00:00 35.3 8 Este 22 Sudeste 0 982.7 -0.7 22
2019-07-24 12:00:00 33.3 9 Este 26 Este 0 983 -0.3 26
2019-07-24 11:00:00 31.5 12 Este 25 Este 0 983.3 0.1 30
2019-07-24 10:00:00 29.1 10 Este 18 Este 0 983.4 0.5 40
2019-07-24 09:00:00 25 5 Este 11 Este 0 983.3 0.6 60
2019-07-24 08:00:00 21.7 5 Este 11 Nordeste 0 983.2 0.5 71
2019-07-24 07:00:00 21.1 7 Este 11 Este 0 982.9 -0.1 70
2019-07-24 06:00:00 21.6 5 Nordeste 12 Nordeste 0 982.7 -0.6 70
2019-07-24 05:00:00 22.2 6 Nordeste 11 Nordeste 0 982.7 -1.2 68
2019-07-24 04:00:00 23.2 5 Nordeste 12 Nordeste 0 983 -0.9 62
2019-07-24 03:00:00 24.6 8 Este 19 Este 0 983.3 -0.1 54
2019-07-24 02:00:00 26.3 9 Este 27 Este 0 983.9 0.8 46
2019-07-24 01:00:00 25.8 11 Este 20 Este 0 983.9 1 51
2019-07-24 00:00:00 26.7 7 Nordeste 18 Este 0 983.4 2.2 47
2019-07-23 23:00:00 28.6 10 Sudeste 27 Sudeste 0 983.1 2.8 36
2019-07-23 22:00:00 29.9 13 Nordeste 29 Nordeste 0 982.9 2.9 35
2019-07-23 21:00:00 32.3 17 Sudeste 37 Este 0 981.2 0.5 32
2019-07-23 20:00:00 36.9 4 Noroeste 18 Norte 0 980.3 -1.2 21
2019-07-23 19:00:00 37.6 10 Norte 20 Norte 0 980 -2.3 20
2019-07-23 18:00:00 37.8 5 Este 22 Norte 0 980.7 -2.2 20
2019-07-23 17:00:00 37.3 7 Norte 23 Norte 0 981.5 -2 21
2019-07-23 16:00:00 36.8 7 Norte 19 Este 0 982.3 -1.9 24
2019-07-23 15:00:00 35.4 8 Nordeste 19 Nordeste 0 982.9 -1.6 25
2019-07-23 14:00:00 34.5 9 Sudeste 24 Sudeste 0 983.5 -0.6 27
2019-07-23 13:00:00 32.2 8 Sudeste 32 Sudeste 0 984.2 -1.1 33
2019-07-23 12:00:00 28.3 14 Este 37 Este 0 984.5 -0.5 45
2019-07-23 11:00:00 25 23 Este 41 Nordeste 0 984.1 -0.4 51
2019-07-23 10:00:00 23.7 18 Nordeste 32 Nordeste 0 985.3 1.4 66
2019-07-23 09:00:00 24 10 Nordeste 25 Nordeste 0 985 1.1 63
2019-07-23 08:00:00 23.3 11 Nordeste 19 Nordeste 0 984.5 0.3 64
2019-07-23 07:00:00 23.5 8 Sudeste 29 Sudeste 0 983.9 -1.9 62
2019-07-23 06:00:00 23.5 15 Sudeste 29 Sur 0 983.9 -0.2 63
2019-07-23 05:00:00 23.6 16 Este 45 Sudoeste 2.6 984.2 0.9 61
2019-07-23 04:00:00 23.9 12 Sur 54 Sudoeste 1.6 985.8 2.8 58
2019-07-23 03:00:00 25.8 15 Sudoeste 30 Sudoeste 0 984.1 1.8 55
2019-07-23 02:00:00 26.2 16 Norte 43 Nordeste 0 983.3 0.2 53
2019-07-23 01:00:00 23.6 6 Este 26 Sur 0 983 -0.6 78
2019-07-23 00:00:00 22.3 4 Oeste 31 Norte 0.8 982.3 0.3 83
2019-07-22 23:00:00 21.9 14 Noroeste 32 Nordeste 7.4 983.1 1.9 81
2019-07-22 22:00:00 24.6 15 Nordeste 36 Este 2.6 983.6 2.3 59
2019-07-22 21:00:00 33.3 22 Sudeste 42 Este 0.2 982 -0.1 26
2019-07-22 20:00:00 39.8 3 Sur 25 Nordeste 0 981.2 -1.9 18
2019-07-22 19:00:00 40.3 12 Este 28 Nordeste 0 981.3 -2.6 14
2019-07-22 18:00:00 40.4 14 Nordeste 31 Sudeste 0 982.1 -2.7 14
2019-07-22 17:00:00 40.7 7 Este 29 Sudeste 0 983.1 -2.4 14
2019-07-22 16:00:00 39.2 17 Este 34 Este 0 983.9 -1.9 15
2019-07-22 15:00:00 37.9 18 Este 41 Sudeste 0 984.8 -1.7 16
2019-07-22 14:00:00 37.4 18 Sudeste 40 Este 0 985.5 -1.3 16
2019-07-22 13:00:00 36.4 17 Sudeste 42 Este 0 985.8 -1.3 16
2019-07-22 12:00:00 34.9 14 Este 37 Este 0 986.5 -0.8 18
2019-07-22 11:00:00 33.1 14 Sudeste 35 Este 0 986.8 -0.1 21
2019-07-22 10:00:00 31.1 18 Este 35 Este 0 987.1 0.8 24
2019-07-22 09:00:00 28.7 17 Este 39 Este 0 987.3 1.8 29
2019-07-22 08:00:00 27.4 12 Este 25 Este 0 986.9 1.9 31
2019-07-22 07:00:00 27.6 13 Este 28 Sudeste 0 986.3 1.4 31
2019-07-22 06:00:00 28.4 9 Sudeste 32 Sudeste 0 985.5 0.7 29
2019-07-22 05:00:00 26.6 8 Sudeste 20 Sudeste 0 985 0.2 38
2019-07-22 04:00:00 24.9 7 Este 11 Este 0 984.9 0.4 44
2019-07-22 03:00:00 26 8 Este 13 Este 0 984.8 0.6 39
2019-07-22 02:00:00 26.1 6 Sur 20 Este 0 984.8 0.8 39
2019-07-22 01:00:00 26.8 8 Oeste 12 Sudoeste 0 984.5 1 39
2019-07-22 00:00:00 26.8 5 Sur 9 Oeste 0 984.2 1.4 40
2019-07-21 23:00:00 29.4 4 Oeste 9 Noroeste 0 984 1.4 32
2019-07-21 22:00:00 32.1 5 Oeste 8 Oeste 0 983.5 0.9 25
2019-07-21 21:00:00 37.2 3 Norte 17 Noroeste 0 982.8 -0.1 16
2019-07-21 20:00:00 38.8 5 Noroeste 20 Noroeste 0 982.6 -0.7 14
2019-07-21 19:00:00 39.8 5 Norte 27 Norte 0 982.6 -1.2 14
2019-07-21 18:00:00 39.9 14 Nordeste 29 Norte 0 982.9 -1.4 14
2019-07-21 17:00:00 40.1 9 Norte 27 Norte 0 983.3 -1.4 14
2019-07-21 16:00:00 40.1 8 Noroeste 22 Norte 0 983.8 -1.3 14
2019-07-21 15:00:00 39 8 Nordeste 22 Este 0 984.3 -1.1 15
2019-07-21 14:00:00 38.1 9 Nordeste 24 Este 0 984.7 -0.7 15
2019-07-21 13:00:00 35.9 8 Nordeste 23 Nordeste 0 985.1 -0.4 20
2019-07-21 12:00:00 34.2 10 Este 24 Este 0 985.4 0 22
2019-07-21 11:00:00 32.1 10 Este 22 Este 0 985.4 0.5 26
2019-07-21 10:00:00 29.9 9 Este 16 Este 0 985.5 1.1 29
2019-07-21 09:00:00 25.1 2 Este 9 Sudeste 0 985.4 1.6 40
2019-07-21 08:00:00 20.8 4 Este 9 Este 0 984.9 1.4 48
2019-07-21 07:00:00 19.4 6 Sudeste 13 Nordeste 0 984.4 1.4 53
2019-07-21 06:00:00 19.7 4 Este 12 Sudeste 0 983.8 0.9 52
2019-07-21 05:00:00 20.3 7 Sudeste 13 Sudeste 0 983.5 0.9 53
2019-07-21 04:00:00 21.2 5 Norte 8 Norte 0 983 0.6 43
2019-07-21 03:00:00 22 3 Noroeste 11 Sudoeste 0 982.9 0.9 38
2019-07-21 02:00:00 23.7 8 Sudoeste 12 Sudoeste 0 982.6 0.6 33
2019-07-21 01:00:00 24.6 0 Calma 16 Oeste 0 982.4 1 30
2019-07-21 00:00:00 25.6 6 Este 10 Noroeste 0 982 1.1 29